sensor_id;sensor_type;location;lat;lon;timestamp;P1;durP1;ratioP1;P2;durP2;ratioP2
17173;SDS011;8702;48.130;-1.696;2023-07-09T00:01:50;4.83;;;2.07;;
17173;SDS011;8702;48.130;-1.696;2023-07-09T00:04:19;7.30;;;2.50;;
17173;SDS011;8702;48.130;-1.696;2023-07-09T00:06:46;4.37;;;2.13;;
17173;SDS011;8702;48.130;-1.696;2023-07-09T00:09:13;7.07;;;2.37;;
17173;SDS011;8702;48.130;-1.696;2023-07-09T00:11:42;3.00;;;1.53;;
17173;SDS011;8702;48.130;-1.696;2023-07-09T00:14:10;4.93;;;1.90;;
17173;SDS011;8702;48.130;-1.696;2023-07-09T00:16:38;7.33;;;2.00;;
17173;SDS011;8702;48.130;-1.696;2023-07-09T00:19:09;5.13;;;1.70;;
17173;SDS011;8702;48.130;-1.696;2023-07-09T00:21:40;6.03;;;2.03;;
17173;SDS011;8702;48.130;-1.696;2023-07-09T00:24:07;5.47;;;1.83;;
17173;SDS011;8702;48.130;-1.696;2023-07-09T00:26:35;7.30;;;1.90;;
17173;SDS011;8702;48.130;-1.696;2023-07-09T00:29:07;4.13;;;1.83;;
17173;SDS011;8702;48.130;-1.696;2023-07-09T00:31:35;4.27;;;2.00;;
17173;SDS011;8702;48.130;-1.696;2023-07-09T00:34:04;4.67;;;1.87;;
17173;SDS011;8702;48.130;-1.696;2023-07-09T00:36:31;5.20;;;1.97;;
17173;SDS011;8702;48.130;-1.696;2023-07-09T00:38:59;5.27;;;1.77;;
17173;SDS011;8702;48.130;-1.696;2023-07-09T00:41:31;7.67;;;2.27;;
17173;SDS011;8702;48.130;-1.696;2023-07-09T00:44:01;5.50;;;1.80;;
17173;SDS011;8702;48.130;-1.696;2023-07-09T00:49:55;9.07;;;2.63;;
17173;SDS011;8702;48.130;-1.696;2023-07-09T00:52:31;7.97;;;2.40;;
17173;SDS011;8702;48.130;-1.696;2023-07-09T00:55:07;6.07;;;2.17;;
17173;SDS011;8702;48.130;-1.696;2023-07-09T00:57:37;6.60;;;2.33;;
17173;SDS011;8702;48.130;-1.696;2023-07-09T01:00:08;6.20;;;2.03;;
17173;SDS011;8702;48.130;-1.696;2023-07-09T01:02:40;6.87;;;2.10;;
17173;SDS011;8702;48.130;-1.696;2023-07-09T01:05:10;5.73;;;2.07;;
17173;SDS011;8702;48.130;-1.696;2023-07-09T01:07:39;8.97;;;2.40;;
17173;SDS011;8702;48.130;-1.696;2023-07-09T01:10:08;5.03;;;1.87;;
17173;SDS011;8702;48.130;-1.696;2023-07-09T01:12:35;7.40;;;2.17;;
17173;SDS011;8702;48.130;-1.696;2023-07-09T01:15:07;8.30;;;2.40;;
17173;SDS011;8702;48.130;-1.696;2023-07-09T01:17:36;6.40;;;2.30;;
17173;SDS011;8702;48.130;-1.696;2023-07-09T01:20:06;6.33;;;2.07;;
17173;SDS011;8702;48.130;-1.696;2023-07-09T01:22:35;6.17;;;2.20;;
17173;SDS011;8702;48.130;-1.696;2023-07-09T01:25:03;4.87;;;1.93;;
17173;SDS011;8702;48.130;-1.696;2023-07-09T01:27:33;7.27;;;2.13;;
17173;SDS011;8702;48.130;-1.696;2023-07-09T01:30:01;7.43;;;2.37;;
17173;SDS011;8702;48.130;-1.696;2023-07-09T01:32:29;7.60;;;2.60;;
17173;SDS011;8702;48.130;-1.696;2023-07-09T01:34:58;7.90;;;2.20;;
17173;SDS011;8702;48.130;-1.696;2023-07-09T01:37:30;5.17;;;2.07;;
17173;SDS011;8702;48.130;-1.696;2023-07-09T01:39:59;4.77;;;2.20;;
17173;SDS011;8702;48.130;-1.696;2023-07-09T01:42:26;5.63;;;2.17;;
17173;SDS011;8702;48.130;-1.696;2023-07-09T01:44:54;7.30;;;2.53;;
17173;SDS011;8702;48.130;-1.696;2023-07-09T01:47:22;7.63;;;2.27;;
17173;SDS011;8702;48.130;-1.696;2023-07-09T01:49:49;8.27;;;2.50;;
17173;SDS011;8702;48.130;-1.696;2023-07-09T01:52:22;8.23;;;2.20;;
17173;SDS011;8702;48.130;-1.696;2023-07-09T01:54:49;4.70;;;2.27;;
17173;SDS011;8702;48.130;-1.696;2023-07-09T01:57:19;6.70;;;2.43;;
17173;SDS011;8702;48.130;-1.696;2023-07-09T01:59:48;5.63;;;2.00;;
17173;SDS011;8702;48.130;-1.696;2023-07-09T02:02:15;5.67;;;2.43;;
17173;SDS011;8702;48.130;-1.696;2023-07-09T02:04:47;5.73;;;2.13;;
17173;SDS011;8702;48.130;-1.696;2023-07-09T02:07:15;4.67;;;1.80;;
17173;SDS011;8702;48.130;-1.696;2023-07-09T02:09:42;5.93;;;2.10;;
17173;SDS011;8702;48.130;-1.696;2023-07-09T02:12:10;7.60;;;2.20;;
17173;SDS011;8702;48.130;-1.696;2023-07-09T02:14:39;5.57;;;1.83;;
17173;SDS011;8702;48.130;-1.696;2023-07-09T02:17:07;6.90;;;2.27;;
17173;SDS011;8702;48.130;-1.696;2023-07-09T02:19:34;5.67;;;2.40;;
17173;SDS011;8702;48.130;-1.696;2023-07-09T02:22:02;7.10;;;2.20;;
17173;SDS011;8702;48.130;-1.696;2023-07-09T02:24:29;7.03;;;3.00;;
17173;SDS011;8702;48.130;-1.696;2023-07-09T02:26:58;7.33;;;2.63;;
17173;SDS011;8702;48.130;-1.696;2023-07-09T02:29:25;6.30;;;2.00;;
17173;SDS011;8702;48.130;-1.696;2023-07-09T02:31:54;6.93;;;2.50;;
17173;SDS011;8702;48.130;-1.696;2023-07-09T02:34:22;8.17;;;2.40;;
17173;SDS011;8702;48.130;-1.696;2023-07-09T02:36:50;7.47;;;2.27;;
17173;SDS011;8702;48.130;-1.696;2023-07-09T02:39:18;6.70;;;2.00;;
17173;SDS011;8702;48.130;-1.696;2023-07-09T02:41:46;10.27;;;2.87;;
17173;SDS011;8702;48.130;-1.696;2023-07-09T02:44:14;7.90;;;2.50;;
17173;SDS011;8702;48.130;-1.696;2023-07-09T02:46:41;6.70;;;2.97;;
17173;SDS011;8702;48.130;-1.696;2023-07-09T02:49:10;5.43;;;2.73;;
17173;SDS011;8702;48.130;-1.696;2023-07-09T02:51:38;9.07;;;2.63;;
17173;SDS011;8702;48.130;-1.696;2023-07-09T02:54:05;4.93;;;2.13;;
17173;SDS011;8702;48.130;-1.696;2023-07-09T02:56:33;7.17;;;2.63;;
17173;SDS011;8702;48.130;-1.696;2023-07-09T02:59:00;7.13;;;2.50;;
17173;SDS011;8702;48.130;-1.696;2023-07-09T03:01:27;7.03;;;2.80;;
17173;SDS011;8702;48.130;-1.696;2023-07-09T03:03:55;7.67;;;2.80;;
17173;SDS011;8702;48.130;-1.696;2023-07-09T03:06:24;7.57;;;2.50;;
17173;SDS011;8702;48.130;-1.696;2023-07-09T03:08:51;9.37;;;3.13;;
17173;SDS011;8702;48.130;-1.696;2023-07-09T03:11:19;9.10;;;3.30;;
17173;SDS011;8702;48.130;-1.696;2023-07-09T03:13:46;6.43;;;2.60;;
17173;SDS011;8702;48.130;-1.696;2023-07-09T03:16:14;7.50;;;2.60;;
17173;SDS011;8702;48.130;-1.696;2023-07-09T03:18:42;7.57;;;2.70;;
17173;SDS011;8702;48.130;-1.696;2023-07-09T03:21:09;6.40;;;2.53;;
17173;SDS011;8702;48.130;-1.696;2023-07-09T03:23:37;7.70;;;2.67;;
17173;SDS011;8702;48.130;-1.696;2023-07-09T03:26:05;8.57;;;3.13;;
17173;SDS011;8702;48.130;-1.696;2023-07-09T03:28:32;8.97;;;2.87;;
17173;SDS011;8702;48.130;-1.696;2023-07-09T03:30:59;6.93;;;2.47;;
17173;SDS011;8702;48.130;-1.696;2023-07-09T03:33:27;10.17;;;2.73;;
17173;SDS011;8702;48.130;-1.696;2023-07-09T03:35:54;8.23;;;2.77;;
17173;SDS011;8702;48.130;-1.696;2023-07-09T03:38:21;6.97;;;2.77;;
17173;SDS011;8702;48.130;-1.696;2023-07-09T03:40:53;9.17;;;2.93;;
17173;SDS011;8702;48.130;-1.696;2023-07-09T03:43:20;8.40;;;2.50;;
17173;SDS011;8702;48.130;-1.696;2023-07-09T03:45:48;7.93;;;2.63;;
17173;SDS011;8702;48.130;-1.696;2023-07-09T03:48:16;8.43;;;2.60;;
17173;SDS011;8702;48.130;-1.696;2023-07-09T03:50:44;7.27;;;2.50;;
17173;SDS011;8702;48.130;-1.696;2023-07-09T03:53:12;6.13;;;2.70;;
17173;SDS011;8702;48.130;-1.696;2023-07-09T03:55:39;7.17;;;2.40;;
17173;SDS011;8702;48.130;-1.696;2023-07-09T03:58:08;5.20;;;2.47;;
17173;SDS011;8702;48.130;-1.696;2023-07-09T04:00:35;4.93;;;2.27;;
17173;SDS011;8702;48.130;-1.696;2023-07-09T04:03:02;6.73;;;2.50;;
17173;SDS011;8702;48.130;-1.696;2023-07-09T04:05:33;7.60;;;2.70;;
17173;SDS011;8702;48.130;-1.696;2023-07-09T04:08:00;8.17;;;2.67;;
17173;SDS011;8702;48.130;-1.696;2023-07-09T04:10:28;6.83;;;2.50;;
17173;SDS011;8702;48.130;-1.696;2023-07-09T04:12:56;5.50;;;2.30;;
17173;SDS011;8702;48.130;-1.696;2023-07-09T04:15:25;6.00;;;2.07;;
17173;SDS011;8702;48.130;-1.696;2023-07-09T04:17:52;7.13;;;2.40;;
17173;SDS011;8702;48.130;-1.696;2023-07-09T04:20:20;5.60;;;2.67;;
17173;SDS011;8702;48.130;-1.696;2023-07-09T04:22:46;6.17;;;2.37;;
17173;SDS011;8702;48.130;-1.696;2023-07-09T04:25:13;4.70;;;2.33;;
17173;SDS011;8702;48.130;-1.696;2023-07-09T04:27:41;7.00;;;2.50;;
17173;SDS011;8702;48.130;-1.696;2023-07-09T04:30:08;4.40;;;2.07;;
17173;SDS011;8702;48.130;-1.696;2023-07-09T04:32:38;4.10;;;1.97;;
17173;SDS011;8702;48.130;-1.696;2023-07-09T04:35:08;6.23;;;2.43;;
17173;SDS011;8702;48.130;-1.696;2023-07-09T04:37:36;3.33;;;2.17;;
17173;SDS011;8702;48.130;-1.696;2023-07-09T04:40:04;6.17;;;2.57;;
17173;SDS011;8702;48.130;-1.696;2023-07-09T04:42:32;4.33;;;2.00;;
17173;SDS011;8702;48.130;-1.696;2023-07-09T04:44:59;7.83;;;2.50;;
17173;SDS011;8702;48.130;-1.696;2023-07-09T04:47:26;5.47;;;2.13;;
17173;SDS011;8702;48.130;-1.696;2023-07-09T04:49:55;7.13;;;2.40;;
17173;SDS011;8702;48.130;-1.696;2023-07-09T04:52:22;4.87;;;2.53;;
17173;SDS011;8702;48.130;-1.696;2023-07-09T04:54:49;3.77;;;2.00;;
17173;SDS011;8702;48.130;-1.696;2023-07-09T04:57:16;7.63;;;2.70;;
17173;SDS011;8702;48.130;-1.696;2023-07-09T04:59:43;6.70;;;2.20;;
17173;SDS011;8702;48.130;-1.696;2023-07-09T05:02:10;4.57;;;2.00;;
17173;SDS011;8702;48.130;-1.696;2023-07-09T05:04:37;6.57;;;2.30;;
17173;SDS011;8702;48.130;-1.696;2023-07-09T05:07:06;9.13;;;2.83;;
17173;SDS011;8702;48.130;-1.696;2023-07-09T05:09:33;5.23;;;2.10;;
17173;SDS011;8702;48.130;-1.696;2023-07-09T05:12:00;6.90;;;2.40;;
17173;SDS011;8702;48.130;-1.696;2023-07-09T05:14:27;6.47;;;2.30;;
17173;SDS011;8702;48.130;-1.696;2023-07-09T05:16:54;5.60;;;2.33;;
17173;SDS011;8702;48.130;-1.696;2023-07-09T05:19:21;8.07;;;2.57;;
17173;SDS011;8702;48.130;-1.696;2023-07-09T05:21:48;5.57;;;2.00;;
17173;SDS011;8702;48.130;-1.696;2023-07-09T05:24:16;7.10;;;2.57;;
17173;SDS011;8702;48.130;-1.696;2023-07-09T05:26:43;6.20;;;2.07;;
17173;SDS011;8702;48.130;-1.696;2023-07-09T05:29:10;4.27;;;2.20;;
17173;SDS011;8702;48.130;-1.696;2023-07-09T05:31:37;5.77;;;2.40;;
17173;SDS011;8702;48.130;-1.696;2023-07-09T05:34:04;9.17;;;3.00;;
17173;SDS011;8702;48.130;-1.696;2023-07-09T05:36:31;6.33;;;2.53;;
17173;SDS011;8702;48.130;-1.696;2023-07-09T05:38:58;7.93;;;3.00;;
17173;SDS011;8702;48.130;-1.696;2023-07-09T05:41:26;8.37;;;2.63;;
17173;SDS011;8702;48.130;-1.696;2023-07-09T05:43:53;5.77;;;2.30;;
17173;SDS011;8702;48.130;-1.696;2023-07-09T05:46:21;4.27;;;2.30;;
17173;SDS011;8702;48.130;-1.696;2023-07-09T05:48:48;7.27;;;2.50;;
17173;SDS011;8702;48.130;-1.696;2023-07-09T05:51:16;6.33;;;2.80;;
17173;SDS011;8702;48.130;-1.696;2023-07-09T05:53:43;6.93;;;2.70;;
17173;SDS011;8702;48.130;-1.696;2023-07-09T05:56:10;9.37;;;3.10;;
17173;SDS011;8702;48.130;-1.696;2023-07-09T05:58:38;7.10;;;2.40;;
17173;SDS011;8702;48.130;-1.696;2023-07-09T06:01:05;6.27;;;2.37;;
17173;SDS011;8702;48.130;-1.696;2023-07-09T06:03:32;4.63;;;2.30;;
17173;SDS011;8702;48.130;-1.696;2023-07-09T06:05:59;6.77;;;2.30;;
17173;SDS011;8702;48.130;-1.696;2023-07-09T06:08:26;9.33;;;2.43;;
17173;SDS011;8702;48.130;-1.696;2023-07-09T06:10:54;10.80;;;2.97;;
17173;SDS011;8702;48.130;-1.696;2023-07-09T06:13:23;9.37;;;2.33;;
17173;SDS011;8702;48.130;-1.696;2023-07-09T06:15:52;8.00;;;2.40;;
17173;SDS011;8702;48.130;-1.696;2023-07-09T06:18:20;7.57;;;2.10;;
17173;SDS011;8702;48.130;-1.696;2023-07-09T06:20:47;6.70;;;2.23;;
17173;SDS011;8702;48.130;-1.696;2023-07-09T06:23:15;5.57;;;2.37;;
17173;SDS011;8702;48.130;-1.696;2023-07-09T06:25:43;7.80;;;2.80;;
17173;SDS011;8702;48.130;-1.696;2023-07-09T06:28:12;7.77;;;2.50;;
17173;SDS011;8702;48.130;-1.696;2023-07-09T06:30:40;9.47;;;2.37;;
17173;SDS011;8702;48.130;-1.696;2023-07-09T06:33:09;6.47;;;2.40;;
17173;SDS011;8702;48.130;-1.696;2023-07-09T06:35:37;11.13;;;2.57;;
17173;SDS011;8702;48.130;-1.696;2023-07-09T06:38:04;6.30;;;2.53;;
17173;SDS011;8702;48.130;-1.696;2023-07-09T06:40:31;6.27;;;2.23;;
17173;SDS011;8702;48.130;-1.696;2023-07-09T06:42:58;10.03;;;2.87;;
17173;SDS011;8702;48.130;-1.696;2023-07-09T06:45:25;9.93;;;2.60;;
17173;SDS011;8702;48.130;-1.696;2023-07-09T06:47:52;7.70;;;2.37;;
17173;SDS011;8702;48.130;-1.696;2023-07-09T06:50:20;9.07;;;2.67;;
17173;SDS011;8702;48.130;-1.696;2023-07-09T06:52:49;6.30;;;2.37;;
17173;SDS011;8702;48.130;-1.696;2023-07-09T06:55:16;8.47;;;2.90;;
17173;SDS011;8702;48.130;-1.696;2023-07-09T06:57:43;6.90;;;2.60;;
17173;SDS011;8702;48.130;-1.696;2023-07-09T07:00:10;6.50;;;2.73;;
17173;SDS011;8702;48.130;-1.696;2023-07-09T07:02:38;11.97;;;3.17;;
17173;SDS011;8702;48.130;-1.696;2023-07-09T07:05:05;7.77;;;3.40;;
17173;SDS011;8702;48.130;-1.696;2023-07-09T07:07:33;6.47;;;2.70;;
17173;SDS011;8702;48.130;-1.696;2023-07-09T07:10:00;6.17;;;2.90;;
17173;SDS011;8702;48.130;-1.696;2023-07-09T07:12:29;5.93;;;3.17;;
17173;SDS011;8702;48.130;-1.696;2023-07-09T07:15:07;8.23;;;3.70;;
17173;SDS011;8702;48.130;-1.696;2023-07-09T07:17:34;7.97;;;3.70;;
17173;SDS011;8702;48.130;-1.696;2023-07-09T07:20:02;7.27;;;3.13;;
17173;SDS011;8702;48.130;-1.696;2023-07-09T07:22:29;9.83;;;3.63;;
17173;SDS011;8702;48.130;-1.696;2023-07-09T07:24:57;8.33;;;3.47;;
17173;SDS011;8702;48.130;-1.696;2023-07-09T07:27:24;6.43;;;3.53;;
17173;SDS011;8702;48.130;-1.696;2023-07-09T07:29:51;5.73;;;2.57;;
17173;SDS011;8702;48.130;-1.696;2023-07-09T07:32:19;6.60;;;2.90;;
17173;SDS011;8702;48.130;-1.696;2023-07-09T07:34:46;7.67;;;3.07;;
17173;SDS011;8702;48.130;-1.696;2023-07-09T07:37:13;8.77;;;3.30;;
17173;SDS011;8702;48.130;-1.696;2023-07-09T07:39:40;8.13;;;2.50;;
17173;SDS011;8702;48.130;-1.696;2023-07-09T07:42:10;6.83;;;2.83;;
17173;SDS011;8702;48.130;-1.696;2023-07-09T07:44:37;8.57;;;2.87;;
17173;SDS011;8702;48.130;-1.696;2023-07-09T07:47:04;5.60;;;2.50;;
17173;SDS011;8702;48.130;-1.696;2023-07-09T07:49:32;7.47;;;2.60;;
17173;SDS011;8702;48.130;-1.696;2023-07-09T07:51:59;8.70;;;3.43;;
17173;SDS011;8702;48.130;-1.696;2023-07-09T07:54:28;6.80;;;2.87;;
17173;SDS011;8702;48.130;-1.696;2023-07-09T07:56:56;4.97;;;2.20;;
17173;SDS011;8702;48.130;-1.696;2023-07-09T07:59:25;5.53;;;2.67;;
17173;SDS011;8702;48.130;-1.696;2023-07-09T08:01:52;4.73;;;2.40;;
17173;SDS011;8702;48.130;-1.696;2023-07-09T08:04:19;7.67;;;2.93;;
17173;SDS011;8702;48.130;-1.696;2023-07-09T08:06:46;6.60;;;2.77;;
17173;SDS011;8702;48.130;-1.696;2023-07-09T08:09:15;6.53;;;2.60;;
17173;SDS011;8702;48.130;-1.696;2023-07-09T08:11:42;10.83;;;4.27;;
17173;SDS011;8702;48.130;-1.696;2023-07-09T08:14:09;7.13;;;2.67;;
17173;SDS011;8702;48.130;-1.696;2023-07-09T08:16:38;5.20;;;2.40;;
17173;SDS011;8702;48.130;-1.696;2023-07-09T08:19:05;5.50;;;2.57;;
17173;SDS011;8702;48.130;-1.696;2023-07-09T08:21:32;6.73;;;2.27;;
17173;SDS011;8702;48.130;-1.696;2023-07-09T08:23:59;8.37;;;2.20;;
17173;SDS011;8702;48.130;-1.696;2023-07-09T08:26:26;7.37;;;2.07;;
17173;SDS011;8702;48.130;-1.696;2023-07-09T08:28:53;5.77;;;2.43;;
17173;SDS011;8702;48.130;-1.696;2023-07-09T08:31:20;5.37;;;2.37;;
17173;SDS011;8702;48.130;-1.696;2023-07-09T08:33:48;5.73;;;2.40;;
17173;SDS011;8702;48.130;-1.696;2023-07-09T08:36:15;8.63;;;2.70;;
17173;SDS011;8702;48.130;-1.696;2023-07-09T08:38:43;7.63;;;2.50;;
17173;SDS011;8702;48.130;-1.696;2023-07-09T08:41:15;7.43;;;2.63;;
17173;SDS011;8702;48.130;-1.696;2023-07-09T08:43:53;5.57;;;2.23;;
17173;SDS011;8702;48.130;-1.696;2023-07-09T08:46:29;6.07;;;2.00;;
17173;SDS011;8702;48.130;-1.696;2023-07-09T08:49:06;12.23;;;2.50;;
17173;SDS011;8702;48.130;-1.696;2023-07-09T08:51:41;7.87;;;2.70;;
17173;SDS011;8702;48.130;-1.696;2023-07-09T08:54:10;4.87;;;2.10;;
17173;SDS011;8702;48.130;-1.696;2023-07-09T08:56:40;6.53;;;2.27;;
17173;SDS011;8702;48.130;-1.696;2023-07-09T08:59:08;8.33;;;2.50;;
17173;SDS011;8702;48.130;-1.696;2023-07-09T09:01:42;6.97;;;2.40;;
17173;SDS011;8702;48.130;-1.696;2023-07-09T09:04:20;8.60;;;2.10;;
17173;SDS011;8702;48.130;-1.696;2023-07-09T09:06:51;5.87;;;2.27;;
17173;SDS011;8702;48.130;-1.696;2023-07-09T09:09:26;7.67;;;2.40;;
17173;SDS011;8702;48.130;-1.696;2023-07-09T09:12:01;5.67;;;2.10;;
17173;SDS011;8702;48.130;-1.696;2023-07-09T09:14:40;8.73;;;2.00;;
17173;SDS011;8702;48.130;-1.696;2023-07-09T09:17:11;6.03;;;2.07;;
17173;SDS011;8702;48.130;-1.696;2023-07-09T09:19:45;6.40;;;2.43;;
17173;SDS011;8702;48.130;-1.696;2023-07-09T09:22:15;6.40;;;2.07;;
17173;SDS011;8702;48.130;-1.696;2023-07-09T09:24:53;5.43;;;2.07;;
17173;SDS011;8702;48.130;-1.696;2023-07-09T09:27:24;7.03;;;2.13;;
17173;SDS011;8702;48.130;-1.696;2023-07-09T09:29:51;4.63;;;2.23;;
17173;SDS011;8702;48.130;-1.696;2023-07-09T09:32:21;6.77;;;2.17;;
17173;SDS011;8702;48.130;-1.696;2023-07-09T09:34:53;5.30;;;2.00;;
17173;SDS011;8702;48.130;-1.696;2023-07-09T09:37:25;6.33;;;2.43;;
17173;SDS011;8702;48.130;-1.696;2023-07-09T09:39:54;6.83;;;2.30;;
17173;SDS011;8702;48.130;-1.696;2023-07-09T09:42:22;6.57;;;2.07;;
17173;SDS011;8702;48.130;-1.696;2023-07-09T09:44:53;8.80;;;2.10;;
17173;SDS011;8702;48.130;-1.696;2023-07-09T09:47:20;8.70;;;2.20;;
17173;SDS011;8702;48.130;-1.696;2023-07-09T09:49:48;8.37;;;2.63;;
17173;SDS011;8702;48.130;-1.696;2023-07-09T09:52:17;6.90;;;2.30;;
17173;SDS011;8702;48.130;-1.696;2023-07-09T09:54:48;7.57;;;2.40;;
17173;SDS011;8702;48.130;-1.696;2023-07-09T09:57:19;9.20;;;2.53;;
17173;SDS011;8702;48.130;-1.696;2023-07-09T09:59:47;5.77;;;2.00;;
17173;SDS011;8702;48.130;-1.696;2023-07-09T10:02:15;4.60;;;1.87;;
17173;SDS011;8702;48.130;-1.696;2023-07-09T10:04:44;5.93;;;2.30;;
17173;SDS011;8702;48.130;-1.696;2023-07-09T10:07:13;5.33;;;2.27;;
17173;SDS011;8702;48.130;-1.696;2023-07-09T10:09:46;5.27;;;1.90;;
17173;SDS011;8702;48.130;-1.696;2023-07-09T10:12:16;5.23;;;1.83;;
17173;SDS011;8702;48.130;-1.696;2023-07-09T10:14:56;5.50;;;2.17;;
17173;SDS011;8702;48.130;-1.696;2023-07-09T10:17:28;5.13;;;1.70;;
17173;SDS011;8702;48.130;-1.696;2023-07-09T10:20:05;8.80;;;2.10;;
17173;SDS011;8702;48.130;-1.696;2023-07-09T10:22:43;4.53;;;1.87;;
17173;SDS011;8702;48.130;-1.696;2023-07-09T10:25:22;4.57;;;1.80;;
17173;SDS011;8702;48.130;-1.696;2023-07-09T10:28:03;5.80;;;2.03;;
17173;SDS011;8702;48.130;-1.696;2023-07-09T10:30:49;3.57;;;1.70;;
17173;SDS011;8702;48.130;-1.696;2023-07-09T10:33:24;6.13;;;2.30;;
17173;SDS011;8702;48.130;-1.696;2023-07-09T10:36:00;4.60;;;2.10;;
17173;SDS011;8702;48.130;-1.696;2023-07-09T10:38:48;4.83;;;2.00;;
17173;SDS011;8702;48.130;-1.696;2023-07-09T10:41:21;6.90;;;2.23;;
17173;SDS011;8702;48.130;-1.696;2023-07-09T10:43:51;7.43;;;2.30;;
17173;SDS011;8702;48.130;-1.696;2023-07-09T10:46:24;5.53;;;2.30;;
17173;SDS011;8702;48.130;-1.696;2023-07-09T10:48:54;6.20;;;2.20;;
17173;SDS011;8702;48.130;-1.696;2023-07-09T10:51:24;3.57;;;1.90;;
17173;SDS011;8702;48.130;-1.696;2023-07-09T10:53:57;5.67;;;2.37;;
17173;SDS011;8702;48.130;-1.696;2023-07-09T10:56:29;3.70;;;1.93;;
17173;SDS011;8702;48.130;-1.696;2023-07-09T10:59:01;4.10;;;1.77;;
17173;SDS011;8702;48.130;-1.696;2023-07-09T11:01:32;5.10;;;2.17;;
17173;SDS011;8702;48.130;-1.696;2023-07-09T11:04:04;4.20;;;2.00;;
17173;SDS011;8702;48.130;-1.696;2023-07-09T11:06:36;3.57;;;1.90;;
17173;SDS011;8702;48.130;-1.696;2023-07-09T11:09:10;4.17;;;1.97;;
17173;SDS011;8702;48.130;-1.696;2023-07-09T11:11:51;4.03;;;1.90;;
17173;SDS011;8702;48.130;-1.696;2023-07-09T11:14:23;4.23;;;1.60;;
17173;SDS011;8702;48.130;-1.696;2023-07-09T11:16:57;4.67;;;1.60;;
17173;SDS011;8702;48.130;-1.696;2023-07-09T11:19:25;4.00;;;1.60;;
17173;SDS011;8702;48.130;-1.696;2023-07-09T11:22:02;4.60;;;2.00;;
17173;SDS011;8702;48.130;-1.696;2023-07-09T11:24:35;3.90;;;1.87;;
17173;SDS011;8702;48.130;-1.696;2023-07-09T11:27:16;5.00;;;1.70;;
17173;SDS011;8702;48.130;-1.696;2023-07-09T11:29:45;4.00;;;1.70;;
17173;SDS011;8702;48.130;-1.696;2023-07-09T11:32:21;3.73;;;1.77;;
17173;SDS011;8702;48.130;-1.696;2023-07-09T11:34:49;4.33;;;1.90;;
17173;SDS011;8702;48.130;-1.696;2023-07-09T11:37:16;3.90;;;1.93;;
17173;SDS011;8702;48.130;-1.696;2023-07-09T11:39:46;4.70;;;2.00;;
17173;SDS011;8702;48.130;-1.696;2023-07-09T11:42:27;4.70;;;2.00;;
17173;SDS011;8702;48.130;-1.696;2023-07-09T11:45:02;3.97;;;1.93;;
17173;SDS011;8702;48.130;-1.696;2023-07-09T11:47:34;4.90;;;1.90;;
17173;SDS011;8702;48.130;-1.696;2023-07-09T11:50:05;4.07;;;1.70;;
17173;SDS011;8702;48.130;-1.696;2023-07-09T11:52:40;4.80;;;1.87;;
17173;SDS011;8702;48.130;-1.696;2023-07-09T11:55:20;2.77;;;1.80;;
17173;SDS011;8702;48.130;-1.696;2023-07-09T11:57:52;3.27;;;1.77;;
17173;SDS011;8702;48.130;-1.696;2023-07-09T12:00:20;4.37;;;1.90;;
17173;SDS011;8702;48.130;-1.696;2023-07-09T12:02:47;7.03;;;2.07;;
17173;SDS011;8702;48.130;-1.696;2023-07-09T12:05:19;5.63;;;1.80;;
17173;SDS011;8702;48.130;-1.696;2023-07-09T12:07:51;6.70;;;1.93;;
17173;SDS011;8702;48.130;-1.696;2023-07-09T12:10:21;4.10;;;2.03;;
17173;SDS011;8702;48.130;-1.696;2023-07-09T12:12:53;7.67;;;2.13;;
17173;SDS011;8702;48.130;-1.696;2023-07-09T12:15:22;4.03;;;1.90;;
17173;SDS011;8702;48.130;-1.696;2023-07-09T12:17:55;3.97;;;1.70;;
17173;SDS011;8702;48.130;-1.696;2023-07-09T12:20:23;5.40;;;2.00;;
17173;SDS011;8702;48.130;-1.696;2023-07-09T12:22:51;3.17;;;1.60;;
17173;SDS011;8702;48.130;-1.696;2023-07-09T12:25:21;4.53;;;2.00;;
17173;SDS011;8702;48.130;-1.696;2023-07-09T12:27:52;5.43;;;2.00;;
17173;SDS011;8702;48.130;-1.696;2023-07-09T12:30:20;3.73;;;2.13;;
17173;SDS011;8702;48.130;-1.696;2023-07-09T12:32:48;7.20;;;1.87;;
17173;SDS011;8702;48.130;-1.696;2023-07-09T12:35:17;3.67;;;1.43;;
17173;SDS011;8702;48.130;-1.696;2023-07-09T12:37:46;3.73;;;1.60;;
17173;SDS011;8702;48.130;-1.696;2023-07-09T12:40:15;5.27;;;1.93;;
17173;SDS011;8702;48.130;-1.696;2023-07-09T12:42:46;2.47;;;1.40;;
17173;SDS011;8702;48.130;-1.696;2023-07-09T12:45:14;5.40;;;1.70;;
17173;SDS011;8702;48.130;-1.696;2023-07-09T12:47:43;4.23;;;1.53;;
17173;SDS011;8702;48.130;-1.696;2023-07-09T12:50:16;4.70;;;1.90;;
17173;SDS011;8702;48.130;-1.696;2023-07-09T12:52:45;4.47;;;1.70;;
17173;SDS011;8702;48.130;-1.696;2023-07-09T12:55:19;5.13;;;1.80;;
17173;SDS011;8702;48.130;-1.696;2023-07-09T12:57:49;5.43;;;1.80;;
17173;SDS011;8702;48.130;-1.696;2023-07-09T13:00:16;3.53;;;1.47;;
17173;SDS011;8702;48.130;-1.696;2023-07-09T13:02:44;4.63;;;1.77;;
17173;SDS011;8702;48.130;-1.696;2023-07-09T13:05:18;4.40;;;1.60;;
17173;SDS011;8702;48.130;-1.696;2023-07-09T13:07:47;6.10;;;1.77;;
17173;SDS011;8702;48.130;-1.696;2023-07-09T13:10:17;4.37;;;1.70;;
17173;SDS011;8702;48.130;-1.696;2023-07-09T13:12:46;5.57;;;1.90;;
17173;SDS011;8702;48.130;-1.696;2023-07-09T13:15:26;5.30;;;1.93;;
17173;SDS011;8702;48.130;-1.696;2023-07-09T13:17:59;4.23;;;1.80;;
17173;SDS011;8702;48.130;-1.696;2023-07-09T13:20:27;5.20;;;1.77;;
17173;SDS011;8702;48.130;-1.696;2023-07-09T13:22:55;5.70;;;1.83;;
17173;SDS011;8702;48.130;-1.696;2023-07-09T13:25:22;5.80;;;1.90;;
17173;SDS011;8702;48.130;-1.696;2023-07-09T13:27:51;6.83;;;2.23;;
17173;SDS011;8702;48.130;-1.696;2023-07-09T13:30:18;4.77;;;1.93;;
17173;SDS011;8702;48.130;-1.696;2023-07-09T13:32:45;6.93;;;2.23;;
17173;SDS011;8702;48.130;-1.696;2023-07-09T13:35:14;4.53;;;2.10;;
17173;SDS011;8702;48.130;-1.696;2023-07-09T13:37:43;4.50;;;2.00;;
17173;SDS011;8702;48.130;-1.696;2023-07-09T13:40:11;5.33;;;2.00;;
17173;SDS011;8702;48.130;-1.696;2023-07-09T13:42:39;3.73;;;1.53;;
17173;SDS011;8702;48.130;-1.696;2023-07-09T13:45:16;6.10;;;1.87;;
17173;SDS011;8702;48.130;-1.696;2023-07-09T13:47:45;5.73;;;1.90;;
17173;SDS011;8702;48.130;-1.696;2023-07-09T13:50:13;5.80;;;1.77;;
17173;SDS011;8702;48.130;-1.696;2023-07-09T13:52:41;4.83;;;1.87;;
17173;SDS011;8702;48.130;-1.696;2023-07-09T13:55:10;7.23;;;2.00;;
17173;SDS011;8702;48.130;-1.696;2023-07-09T13:57:43;6.67;;;2.23;;
17173;SDS011;8702;48.130;-1.696;2023-07-09T14:00:11;4.30;;;1.47;;
17173;SDS011;8702;48.130;-1.696;2023-07-09T14:02:40;6.33;;;1.70;;
17173;SDS011;8702;48.130;-1.696;2023-07-09T14:05:08;7.17;;;2.30;;
17173;SDS011;8702;48.130;-1.696;2023-07-09T14:07:38;3.67;;;1.70;;
17173;SDS011;8702;48.130;-1.696;2023-07-09T14:10:09;5.17;;;1.90;;
17173;SDS011;8702;48.130;-1.696;2023-07-09T14:12:39;7.00;;;2.23;;
17173;SDS011;8702;48.130;-1.696;2023-07-09T14:15:12;5.47;;;2.03;;
17173;SDS011;8702;48.130;-1.696;2023-07-09T14:17:42;8.17;;;2.10;;
17173;SDS011;8702;48.130;-1.696;2023-07-09T14:20:14;4.33;;;1.80;;
17173;SDS011;8702;48.130;-1.696;2023-07-09T14:22:42;5.47;;;1.90;;
17173;SDS011;8702;48.130;-1.696;2023-07-09T14:25:14;5.23;;;2.00;;
17173;SDS011;8702;48.130;-1.696;2023-07-09T14:27:43;5.83;;;1.93;;
17173;SDS011;8702;48.130;-1.696;2023-07-09T14:30:13;6.13;;;2.10;;
17173;SDS011;8702;48.130;-1.696;2023-07-09T14:32:43;5.97;;;2.23;;
17173;SDS011;8702;48.130;-1.696;2023-07-09T14:35:13;5.03;;;2.00;;
17173;SDS011;8702;48.130;-1.696;2023-07-09T14:37:42;4.97;;;1.80;;
17173;SDS011;8702;48.130;-1.696;2023-07-09T14:40:10;7.23;;;2.03;;
17173;SDS011;8702;48.130;-1.696;2023-07-09T14:42:39;3.93;;;1.73;;
17173;SDS011;8702;48.130;-1.696;2023-07-09T14:45:15;6.83;;;2.07;;
17173;SDS011;8702;48.130;-1.696;2023-07-09T14:47:45;6.77;;;1.80;;
17173;SDS011;8702;48.130;-1.696;2023-07-09T14:50:12;5.10;;;2.07;;
17173;SDS011;8702;48.130;-1.696;2023-07-09T14:52:40;3.87;;;1.90;;
17173;SDS011;8702;48.130;-1.696;2023-07-09T14:55:12;4.07;;;1.77;;
17173;SDS011;8702;48.130;-1.696;2023-07-09T14:57:40;7.67;;;2.33;;
17173;SDS011;8702;48.130;-1.696;2023-07-09T15:00:11;4.47;;;1.80;;
17173;SDS011;8702;48.130;-1.696;2023-07-09T15:02:40;6.57;;;1.83;;
17173;SDS011;8702;48.130;-1.696;2023-07-09T15:05:15;6.97;;;1.90;;